Time;durP1;ratioP1;P1;durP2;ratioP2;P2;SDS_P1;SDS_P2;PMS_P1;PMS_P2;Temp;Humidity;BMP_temperature;BMP_pressure;BME280_temperature;BME280_humidity;BME280_pressure;Samples;Min_cycle;Max_cycle;Signal;HPM_P1;HPM_P2
2022/08/01 00:02:23;;;;;;;2.22;1.92;;;;;25.40;101514.00;;;;5048619;28;20292;-78
2022/08/01 00:04:50;;;;;;;1.90;1.60;;;;;25.40;101514.00;;;;5050272;28;20207;-78
2022/08/01 00:07:17;;;;;;;3.00;1.98;;;;;25.40;101517.00;;;;5050082;28;20192;-78
2022/08/01 00:09:44;;;;;;;3.60;2.40;;;;;25.40;101515.00;;;;5050106;28;20336;-78
2022/08/01 00:12:12;;;;;;;2.10;1.70;;;;;25.40;101513.00;;;;5050801;28;20561;-77
2022/08/01 00:14:39;;;;;;;4.13;1.85;;;;;25.40;101510.00;;;;5050261;28;20223;-78
2022/08/01 00:17:06;;;;;;;2.60;1.80;;;;;25.40;101513.00;;;;5050622;28;20223;-78
2022/08/01 00:19:35;;;;;;;2.55;1.40;;;;;25.30;101509.00;;;;5049850;28;20210;-78
2022/08/01 00:22:02;;;;;;;2.72;1.90;;;;;25.40;101508.00;;;;5051234;28;20195;-78
2022/08/01 00:24:30;;;;;;;2.55;1.90;;;;;25.40;101510.00;;;;5050408;28;20210;-78
2022/08/01 00:26:57;;;;;;;2.17;1.60;;;;;25.40;101519.00;;;;5050681;28;20207;-78
2022/08/01 00:29:24;;;;;;;2.67;1.70;;;;;25.30;101519.00;;;;5050494;28;20191;-78
2022/08/01 00:31:51;;;;;;;2.22;1.67;;;;;25.30;101521.00;;;;5050638;28;20287;-78
2022/08/01 00:34:19;;;;;;;2.33;1.73;;;;;25.30;101522.00;;;;5049596;28;20215;-78
2022/08/01 00:36:47;;;;;;;4.15;1.58;;;;;25.30;101515.00;;;;5048131;28;20204;-78
2022/08/01 00:39:15;;;;;;;3.13;2.00;;;;;25.30;101514.00;;;;5040014;28;20195;-78
2022/08/01 00:41:42;;;;;;;2.80;1.92;;;;;25.30;101515.00;;;;5050597;28;20206;-78
2022/08/01 00:44:09;;;;;;;3.35;1.83;;;;;25.30;101509.00;;;;5050300;28;20195;-78
2022/08/01 00:46:37;;;;;;;2.85;2.28;;;;;25.30;101512.00;;;;5050141;28;20195;-78
2022/08/01 00:49:04;;;;;;;3.78;2.40;;;;;25.30;101512.00;;;;5050037;28;20195;-78
2022/08/01 00:51:33;;;;;;;3.38;2.17;;;;;25.30;101520.00;;;;5049550;28;20207;-77
2022/08/01 00:54:01;;;;;;;2.70;1.88;;;;;25.30;101516.00;;;;5045538;28;20319;-78
2022/08/01 00:56:29;;;;;;;3.42;2.28;;;;;25.30;101517.00;;;;5048574;28;20239;-78
2022/08/01 00:58:57;;;;;;;2.83;2.45;;;;;25.30;101524.00;;;;5049643;28;20223;-77
2022/08/01 01:01:24;;;;;;;3.35;2.22;;;;;25.30;101522.00;;;;5049813;28;20204;-78
2022/08/01 01:03:53;;;;;;;3.33;2.03;;;;;25.20;101519.00;;;;5049577;28;20199;-78
2022/08/01 01:06:30;;;;;;;5.00;2.38;;;;;25.20;101522.00;;;;5049600;28;20203;-78
2022/08/01 01:09:12;;;;;;;4.00;2.28;;;;;25.20;101523.00;;;;5049419;28;20214;-78
2022/08/01 01:11:50;;;;;;;4.40;2.65;;;;;25.10;101524.00;;;;5039737;28;20217;-78
2022/08/01 01:14:27;;;;;;;2.92;2.50;;;;;25.20;101514.00;;;;5046378;28;20258;-78
2022/08/01 01:16:56;;;;;;;4.95;2.28;;;;;25.20;101514.00;;;;5049850;28;20206;-78
2022/08/01 01:19:29;;;;;;;2.72;2.35;;;;;25.20;101512.00;;;;5048613;28;20200;-78
2022/08/01 01:22:23;;;;;;;3.10;2.42;;;;;25.10;101509.00;;;;5049444;28;20227;-78
2022/08/01 01:25:05;;;;;;;4.47;2.75;;;;;25.10;101515.00;;;;5041548;28;20704;-78
2022/08/01 01:27:46;;;;;;;4.55;3.20;;;;;25.10;101513.00;;;;5048538;28;20196;-78
2022/08/01 01:30:18;;;;;;;5.60;2.95;;;;;25.10;101511.00;;;;5037852;28;20196;-78
2022/08/01 01:32:48;;;;;;;4.82;2.97;;;;;25.20;101505.00;;;;5048593;28;20195;-78
2022/08/01 01:35:19;;;;;;;4.15;2.92;;;;;25.10;101503.00;;;;5049096;28;20219;-78
2022/08/01 01:37:50;;;;;;;6.00;3.15;;;;;25.10;101500.00;;;;5048687;28;20200;-79
2022/08/01 01:40:20;;;;;;;3.30;2.95;;;;;25.10;101510.00;;;;5034847;28;20203;-78
2022/08/01 01:42:49;;;;;;;4.70;2.75;;;;;25.10;101505.00;;;;5048486;28;20191;-78
2022/08/01 01:45:18;;;;;;;4.28;3.05;;;;;25.10;101508.00;;;;5042268;28;20697;-78
2022/08/01 01:47:47;;;;;;;4.07;2.83;;;;;25.10;101513.00;;;;5029435;28;20215;-78
2022/08/01 01:50:15;;;;;;;5.20;3.10;;;;;25.10;101512.00;;;;5041309;28;20582;-78
2022/08/01 01:52:45;;;;;;;7.57;4.07;;;;;25.10;101516.00;;;;5048911;28;20200;-78
2022/08/01 01:55:14;;;;;;;5.50;3.00;;;;;25.10;101515.00;;;;5048623;28;20224;-78
2022/08/01 01:57:43;;;;;;;6.20;3.28;;;;;25.10;101519.00;;;;5049224;28;20242;-77
2022/08/01 02:00:13;;;;;;;3.85;2.92;;;;;25.10;101517.00;;;;5048387;28;20202;-78
2022/08/01 02:02:44;;;;;;;4.10;2.90;;;;;25.10;101516.00;;;;5041821;28;20191;-78
2022/08/01 02:05:13;;;;;;;3.83;2.78;;;;;25.10;101515.00;;;;5048195;28;20210;-78
2022/08/01 02:07:42;;;;;;;6.03;3.13;;;;;25.10;101511.00;;;;5048789;28;20195;-78
2022/08/01 02:10:11;;;;;;;4.55;2.97;;;;;25.10;101516.00;;;;5048538;28;20223;-78
2022/08/01 02:12:42;;;;;;;4.43;3.25;;;;;25.10;101515.00;;;;5048207;28;20219;-78
2022/08/01 02:15:10;;;;;;;6.18;3.03;;;;;25.10;101508.00;;;;5048131;28;20216;-78
2022/08/01 02:17:43;;;;;;;3.83;2.72;;;;;25.10;101513.00;;;;5048469;28;20220;-78
2022/08/01 02:20:12;;;;;;;5.90;3.15;;;;;25.10;101502.00;;;;5044081;28;20208;-78
2022/08/01 02:22:44;;;;;;;4.43;3.00;;;;;25.10;101505.00;;;;5048175;28;20195;-78
2022/08/01 02:25:17;;;;;;;6.07;3.15;;;;;25.10;101514.00;;;;5047609;28;20562;-78
2022/08/01 02:27:51;;;;;;;4.35;2.97;;;;;25.10;101517.00;;;;5048268;28;20338;-78
2022/08/01 02:30:20;;;;;;;7.20;3.63;;;;;25.10;101523.00;;;;5048025;28;20203;-78
2022/08/01 02:32:52;;;;;;;4.60;3.13;;;;;25.10;101515.00;;;;5048340;28;20192;-78
2022/08/01 02:35:27;;;;;;;4.40;3.00;;;;;25.10;101505.00;;;;5047668;28;20223;-78
2022/08/01 02:37:56;;;;;;;4.28;3.13;;;;;25.10;101516.00;;;;5047516;28;20202;-78
2022/08/01 02:40:24;;;;;;;5.32;3.05;;;;;25.10;101517.00;;;;5047058;28;20200;-78
2022/08/01 02:42:54;;;;;;;4.82;3.28;;;;;25.10;101519.00;;;;5047592;28;20198;-78
2022/08/01 02:45:25;;;;;;;6.93;3.40;;;;;25.10;101524.00;;;;5047325;28;20200;-77
2022/08/01 02:48:00;;;;;;;4.88;3.05;;;;;25.00;101521.00;;;;5047862;28;20206;-78
2022/08/01 02:50:29;;;;;;;5.47;3.10;;;;;25.10;101520.00;;;;5046567;28;20535;-78
2022/08/01 02:52:57;;;;;;;4.97;2.92;;;;;25.10;101518.00;;;;5041317;28;20211;-78
2022/08/01 02:55:26;;;;;;;5.30;3.50;;;;;25.10;101516.00;;;;5038829;28;20223;-78
2022/08/01 02:57:55;;;;;;;3.95;3.03;;;;;25.00;101518.00;;;;5047371;28;20232;-78
2022/08/01 03:00:24;;;;;;;5.10;3.15;;;;;25.10;101508.00;;;;5047126;28;20200;-79
2022/08/01 03:02:55;;;;;;;5.18;3.42;;;;;25.00;101509.00;;;;5047153;28;20195;-78
2022/08/01 03:05:23;;;;;;;6.22;3.13;;;;;25.00;101512.00;;;;5047603;28;20629;-78
2022/08/01 03:07:52;;;;;;;3.50;2.55;;;;;25.00;101507.00;;;;5047256;28;20207;-78
2022/08/01 03:10:20;;;;;;;5.22;2.95;;;;;25.00;101505.00;;;;5045820;28;20204;-78
2022/08/01 03:12:49;;;;;;;6.68;2.45;;;;;25.00;101504.00;;;;5047443;28;20677;-78
2022/08/01 03:15:17;;;;;;;4.47;3.30;;;;;25.00;101500.00;;;;5047045;28;20223;-78
2022/08/01 03:17:46;;;;;;;3.20;2.53;;;;;25.00;101505.00;;;;5048119;28;20203;-78
2022/08/01 03:20:17;;;;;;;4.93;3.10;;;;;24.90;101512.00;;;;5047100;28;20345;-78
2022/08/01 03:22:45;;;;;;;5.18;2.80;;;;;24.90;101518.00;;;;5046815;28;20199;-78
2022/08/01 03:25:14;;;;;;;4.13;2.97;;;;;24.90;101513.00;;;;5046709;28;20195;-78
2022/08/01 03:27:44;;;;;;;5.70;3.50;;;;;24.90;101523.00;;;;5037831;28;20215;-78
2022/08/01 03:30:13;;;;;;;3.40;2.85;;;;;24.90;101521.00;;;;5028145;28;20204;-78
2022/08/01 03:32:40;;;;;;;4.85;2.95;;;;;24.90;101521.00;;;;5039187;28;20677;-79
2022/08/01 03:35:08;;;;;;;4.55;2.60;;;;;24.90;101518.00;;;;5047869;28;20568;-79
2022/08/01 03:37:43;;;;;;;6.13;3.33;;;;;24.80;101519.00;;;;5050038;28;20198;-78
2022/08/01 03:40:15;;;;;;;4.45;2.50;;;;;24.80;101519.00;;;;5051002;28;20530;-79
2022/08/01 03:42:47;;;;;;;4.15;2.95;;;;;24.80;101513.00;;;;5051300;28;20199;-78
2022/08/01 03:45:23;;;;;;;4.43;2.92;;;;;24.80;101528.00;;;;5037178;28;20200;-78
2022/08/01 03:47:53;;;;;;;4.78;2.85;;;;;24.80;101518.00;;;;5031584;28;20624;-78
2022/08/01 03:50:24;;;;;;;4.05;2.47;;;;;24.80;101518.00;;;;5040932;28;20293;-78
2022/08/01 03:52:57;;;;;;;3.63;2.30;;;;;24.80;101518.00;;;;5050830;28;20191;-78
2022/08/01 03:55:26;;;;;;;4.13;2.80;;;;;24.80;101523.00;;;;5050881;28;20219;-78
2022/08/01 03:57:54;;;;;;;3.65;2.88;;;;;24.80;101518.00;;;;5051140;28;20638;-78
2022/08/01 04:00:22;;;;;;;3.50;3.08;;;;;24.80;101522.00;;;;5050287;28;20202;-78
2022/08/01 04:02:50;;;;;;;4.13;2.67;;;;;24.80;101516.00;;;;5049669;28;20199;-78
2022/08/01 04:05:18;;;;;;;3.63;2.85;;;;;24.80;101521.00;;;;5050570;28;20192;-78
2022/08/01 04:07:54;;;;;;;6.10;2.65;;;;;24.80;101525.00;;;;5050768;28;20198;-78
2022/08/01 04:10:23;;;;;;;3.15;2.50;;;;;24.80;101525.00;;;;5050283;28;20276;-78
2022/08/01 04:12:51;;;;;;;3.55;2.90;;;;;24.80;101521.00;;;;5050816;28;20199;-78
2022/08/01 04:15:20;;;;;;;3.83;2.88;;;;;24.80;101523.00;;;;5050328;28;20207;-78
2022/08/01 04:17:47;;;;;;;4.10;2.72;;;;;24.80;101524.00;;;;5048200;28;20231;-78
2022/08/01 04:20:15;;;;;;;4.03;2.85;;;;;24.80;101527.00;;;;5039875;28;20192;-79
2022/08/01 04:22:42;;;;;;;3.65;2.97;;;;;24.80;101532.00;;;;5050384;28;20206;-79
2022/08/01 04:25:15;;;;;;;3.30;2.67;;;;;24.80;101536.00;;;;5050193;28;20203;-78
2022/08/01 04:27:48;;;;;;;3.90;3.03;;;;;24.80;101536.00;;;;5050999;28;20198;-78
2022/08/01 04:30:17;;;;;;;3.22;2.70;;;;;24.80;101537.00;;;;5050548;28;20207;-79
2022/08/01 04:32:46;;;;;;;3.60;3.00;;;;;24.80;101545.00;;;;5050791;28;20223;-78
2022/08/01 04:35:17;;;;;;;3.72;2.80;;;;;24.80;101539.00;;;;5041857;28;20223;-78
2022/08/01 04:37:48;;;;;;;3.25;2.47;;;;;24.80;101536.00;;;;5044947;28;20269;-78
2022/08/01 04:40:16;;;;;;;5.28;3.72;;;;;24.80;101533.00;;;;5047724;28;20204;-77
2022/08/01 04:42:48;;;;;;;5.10;3.28;;;;;24.80;101545.00;;;;5050001;28;20204;-78
2022/08/01 04:45:16;;;;;;;4.38;2.95;;;;;24.80;101537.00;;;;5049938;28;20188;-78
2022/08/01 04:47:44;;;;;;;4.03;2.95;;;;;24.80;101545.00;;;;5049970;28;20208;-78
2022/08/01 04:50:12;;;;;;;3.28;2.80;;;;;24.90;101542.00;;;;5049507;28;20192;-78
2022/08/01 04:52:41;;;;;;;4.28;2.80;;;;;24.90;101556.00;;;;5040366;28;20204;-78
2022/08/01 04:55:10;;;;;;;2.70;2.38;;;;;24.90;101554.00;;;;5040166;28;20227;-79
2022/08/01 04:57:41;;;;;;;3.00;2.65;;;;;24.90;101559.00;;;;5050508;28;20228;-78
2022/08/01 05:00:11;;;;;;;3.00;2.70;;;;;24.90;101562.00;;;;5050463;28;20588;-78
2022/08/01 05:02:38;;;;;;;3.13;2.50;;;;;24.90;101567.00;;;;5049931;28;20195;-78
2022/08/01 05:05:06;;;;;;;4.10;2.33;;;;;24.90;101564.00;;;;5051022;28;20196;-78
2022/08/01 05:07:35;;;;;;;3.08;2.78;;;;;24.90;101560.00;;;;5050015;28;20206;-78
2022/08/01 05:10:03;;;;;;;2.85;2.65;;;;;24.90;101571.00;;;;5045580;28;20295;-78
2022/08/01 05:12:32;;;;;;;4.25;2.72;;;;;24.90;101569.00;;;;5050112;28;20234;-78
2022/08/01 05:14:59;;;;;;;3.33;2.90;;;;;24.90;101567.00;;;;5049742;28;20822;-78
2022/08/01 05:17:28;;;;;;;3.20;2.42;;;;;24.90;101573.00;;;;5050124;28;20199;-78
2022/08/01 05:19:55;;;;;;;3.10;2.67;;;;;24.90;101568.00;;;;5044895;28;20203;-78
2022/08/01 05:22:25;;;;;;;3.55;2.95;;;;;25.00;101565.00;;;;5041282;28;20270;-78
2022/08/01 05:24:53;;;;;;;3.13;2.63;;;;;25.00;101573.00;;;;5050214;28;20278;-78
2022/08/01 05:27:20;;;;;;;3.22;2.53;;;;;25.00;101572.00;;;;5048325;28;20257;-78
2022/08/01 05:29:48;;;;;;;4.50;2.88;;;;;25.00;101574.00;;;;5049652;28;20214;-78
2022/08/01 05:32:15;;;;;;;2.55;2.28;;;;;25.00;101574.00;;;;5049552;28;20203;-78
2022/08/01 05:34:43;;;;;;;2.58;2.20;;;;;25.00;101575.00;;;;5050196;28;20202;-78
2022/08/01 05:37:11;;;;;;;2.20;1.73;;;;;25.00;101577.00;;;;5049744;28;20223;-78
2022/08/01 05:39:38;;;;;;;3.65;1.60;;;;;25.00;101581.00;;;;5049586;28;20210;-78
2022/08/01 05:42:06;;;;;;;1.50;1.17;;;;;25.00;101573.00;;;;5050225;28;20200;-78
2022/08/01 05:44:33;;;;;;;1.23;1.13;;;;;25.00;101578.00;;;;5036110;28;20199;-78
2022/08/01 05:47:02;;;;;;;2.30;1.48;;;;;25.00;101582.00;;;;5044077;28;20200;-78
2022/08/01 05:49:29;;;;;;;1.45;1.35;;;;;25.00;101580.00;;;;5042745;28;20253;-78
2022/08/01 05:52:01;;;;;;;1.30;1.20;;;;;24.90;101580.00;;;;5050206;28;20207;-78
2022/08/01 05:54:29;;;;;;;1.52;1.08;;;;;25.00;101589.00;;;;5048801;28;20223;-78
2022/08/01 05:56:59;;;;;;;1.80;1.17;;;;;25.00;101586.00;;;;5049226;28;20246;-78
2022/08/01 05:59:27;;;;;;;1.10;1.00;;;;;25.00;101594.00;;;;5048916;28;20199;-78
2022/08/01 06:01:54;;;;;;;1.40;1.10;;;;;25.00;101593.00;;;;5041639;28;21259;-78
2022/08/01 06:04:21;;;;;;;1.38;1.00;;;;;25.00;101600.00;;;;5031760;28;20215;-78
2022/08/01 06:06:49;;;;;;;0.70;0.70;;;;;25.00;101599.00;;;;5049674;28;20200;-78
2022/08/01 06:09:18;;;;;;;0.95;0.85;;;;;25.00;101597.00;;;;5049131;28;20199;-78
2022/08/01 06:11:45;;;;;;;2.45;0.75;;;;;25.00;101604.00;;;;5049645;28;20200;-78
2022/08/01 06:14:13;;;;;;;1.45;0.85;;;;;25.00;101600.00;;;;5049498;28;20573;-78
2022/08/01 06:16:40;;;;;;;1.05;0.80;;;;;25.00;101608.00;;;;5043656;28;20230;-78
2022/08/01 06:19:07;;;;;;;1.20;1.10;;;;;24.90;101612.00;;;;5029757;28;20200;-77
2022/08/01 06:21:34;;;;;;;0.60;0.50;;;;;24.90;101607.00;;;;5048798;28;20196;-78
2022/08/01 06:24:02;;;;;;;0.98;0.60;;;;;24.90;101606.00;;;;5049475;28;20204;-78
2022/08/01 06:26:31;;;;;;;1.02;0.50;;;;;24.90;101606.00;;;;5044197;28;20215;-77
2022/08/01 06:28:58;;;;;;;0.77;0.77;;;;;24.90;101607.00;;;;5049081;28;20196;-77
2022/08/01 06:31:25;;;;;;;0.93;0.70;;;;;24.90;101609.00;;;;5048051;28;20230;-77
2022/08/01 06:33:52;;;;;;;0.47;0.40;;;;;24.90;101612.00;;;;5045384;28;20622;-77
2022/08/01 06:36:20;;;;;;;0.47;0.45;;;;;24.90;101619.00;;;;5043271;28;20227;-77
2022/08/01 06:38:47;;;;;;;0.95;0.70;;;;;24.90;101624.00;;;;5048997;28;20246;-77
2022/08/01 06:41:14;;;;;;;2.42;0.70;;;;;24.90;101623.00;;;;5047512;28;20187;-78
2022/08/01 06:43:43;;;;;;;1.60;0.77;;;;;24.80;101632.00;;;;5048735;28;20195;-78
2022/08/01 06:46:10;;;;;;;1.05;0.60;;;;;24.90;101621.00;;;;5048637;28;20203;-77
2022/08/01 06:48:39;;;;;;;0.57;0.52;;;;;24.90;101633.00;;;;5047907;28;20294;-77
2022/08/01 06:51:09;;;;;;;0.50;0.43;;;;;24.90;101628.00;;;;5042684;28;20215;-77
2022/08/01 06:53:37;;;;;;;0.85;0.70;;;;;24.90;101639.00;;;;5027399;28;20213;-77
2022/08/01 06:56:05;;;;;;;1.35;0.70;;;;;24.80;101637.00;;;;5042228;28;20232;-76
2022/08/01 06:58:34;;;;;;;0.50;0.50;;;;;24.90;101640.00;;;;5048130;28;20212;-77
2022/08/01 07:01:05;;;;;;;0.43;0.35;;;;;24.80;101638.00;;;;5048065;28;20199;-77
2022/08/01 07:03:32;;;;;;;0.88;0.52;;;;;24.80;101636.00;;;;5047738;28;20203;-77
2022/08/01 07:06:00;;;;;;;0.82;0.60;;;;;24.80;101628.00;;;;5047682;28;20393;-78
2022/08/01 07:08:27;;;;;;;0.90;0.40;;;;;24.80;101630.00;;;;5039764;28;20215;-78
2022/08/01 07:10:55;;;;;;;2.42;0.43;;;;;24.80;101630.00;;;;5040672;28;20199;-78
2022/08/01 07:13:24;;;;;;;1.05;0.63;;;;;24.80;101631.00;;;;5047638;28;21547;-78
2022/08/01 07:15:52;;;;;;;0.47;0.38;;;;;24.80;101630.00;;;;5047482;28;20298;-78
2022/08/01 07:18:21;;;;;;;0.43;0.43;;;;;24.80;101629.00;;;;5047131;28;20359;-78
2022/08/01 07:20:48;;;;;;;1.75;0.70;;;;;24.80;101631.00;;;;5047312;28;20909;-78
2022/08/01 07:23:15;;;;;;;0.68;0.68;;;;;24.90;101635.00;;;;5047596;28;20199;-77
2022/08/01 07:25:43;;;;;;;0.93;0.80;;;;;24.90;101636.00;;;;5037563;28;20823;-78
2022/08/01 07:28:10;;;;;;;1.10;0.40;;;;;24.90;101641.00;;;;5037845;28;20214;-78
2022/08/01 07:30:38;;;;;;;0.77;0.60;;;;;24.90;101643.00;;;;5047534;28;20206;-77
2022/08/01 07:33:05;;;;;;;1.10;0.80;;;;;24.90;101645.00;;;;5047584;28;20191;-77
2022/08/01 07:35:34;;;;;;;0.65;0.57;;;;;24.90;101647.00;;;;5044255;28;20205;-78
2022/08/01 07:38:01;;;;;;;0.80;0.40;;;;;24.90;101651.00;;;;5039822;28;20196;-78
2022/08/01 07:40:28;;;;;;;0.75;0.65;;;;;25.00;101651.00;;;;5047521;28;20210;-78
2022/08/01 07:42:56;;;;;;;1.25;0.77;;;;;25.00;101655.00;;;;5039047;28;20187;-77
2022/08/01 07:45:23;;;;;;;0.75;0.50;;;;;25.00;101653.00;;;;5047575;28;20564;-77
2022/08/01 07:47:51;;;;;;;1.33;0.52;;;;;25.00;101661.00;;;;5047348;28;20195;-77
2022/08/01 07:50:18;;;;;;;0.68;0.50;;;;;25.00;101665.00;;;;5047039;28;20203;-77
2022/08/01 07:52:46;;;;;;;2.55;0.73;;;;;25.00;101668.00;;;;5047478;28;20204;-77
2022/08/01 07:55:14;;;;;;;0.70;0.70;;;;;25.00;101671.00;;;;5047160;28;20207;-77
2022/08/01 07:57:41;;;;;;;2.22;0.65;;;;;25.00;101672.00;;;;5046583;28;20235;-78
2022/08/01 08:00:09;;;;;;;0.90;0.80;;;;;25.00;101681.00;;;;5036425;28;20200;-78
2022/08/01 08:02:37;;;;;;;0.73;0.57;;;;;25.00;101682.00;;;;5047624;28;20212;-78
2022/08/01 08:05:06;;;;;;;1.25;0.80;;;;;25.00;101683.00;;;;5046975;28;20203;-79
2022/08/01 08:07:33;;;;;;;0.50;0.50;;;;;24.90;101682.00;;;;5046941;28;20666;-79
2022/08/01 08:10:02;;;;;;;2.20;0.95;;;;;24.90;101685.00;;;;5046292;28;20200;-79
2022/08/01 08:12:30;;;;;;;1.83;0.75;;;;;24.90;101687.00;;;;5047038;28;20196;-79
2022/08/01 08:14:58;;;;;;;1.52;0.80;;;;;24.90;101686.00;;;;5048013;28;20207;-78
2022/08/01 08:17:26;;;;;;;1.23;0.70;;;;;24.80;101684.00;;;;5044564;28;20686;-79
2022/08/01 08:19:53;;;;;;;3.38;1.27;;;;;24.80;101688.00;;;;5046619;28;20208;-79
2022/08/01 08:22:20;;;;;;;1.75;1.20;;;;;24.80;101689.00;;;;5028551;28;20209;-80
2022/08/01 08:24:48;;;;;;;2.00;1.08;;;;;24.80;101697.00;;;;5051793;28;20198;-79
2022/08/01 08:27:16;;;;;;;2.65;1.17;;;;;24.80;101690.00;;;;5051104;28;20199;-79
2022/08/01 08:29:44;;;;;;;2.35;1.30;;;;;24.80;101697.00;;;;5051281;28;20191;-79
2022/08/01 08:32:11;;;;;;;1.65;1.13;;;;;24.80;101698.00;;;;5051212;28;20207;-79
2022/08/01 08:34:38;;;;;;;3.08;1.40;;;;;24.80;101694.00;;;;5050125;28;20207;-79
2022/08/01 08:37:07;;;;;;;2.55;0.98;;;;;24.80;101693.00;;;;5050201;28;20226;-79
2022/08/01 08:39:34;;;;;;;2.30;1.20;;;;;24.80;101690.00;;;;5050311;28;20192;-79
2022/08/01 08:42:02;;;;;;;3.53;1.40;;;;;24.90;101696.00;;;;5050217;28;20697;-78
2022/08/01 08:44:31;;;;;;;3.05;1.17;;;;;24.90;101703.00;;;;5051133;28;20196;-78
2022/08/01 08:47:01;;;;;;;4.85;1.20;;;;;24.90;101697.00;;;;5050581;28;20192;-79
2022/08/01 08:49:29;;;;;;;4.38;1.80;;;;;24.90;101699.00;;;;5050505;28;20199;-79
2022/08/01 08:52:01;;;;;;;4.05;1.80;;;;;24.90;101702.00;;;;5047094;28;20203;-80
2022/08/01 08:54:30;;;;;;;5.95;1.60;;;;;25.00;101701.00;;;;5050299;28;20207;-78
2022/08/01 08:56:58;;;;;;;3.80;1.48;;;;;25.00;101705.00;;;;5050371;28;20729;-78
2022/08/01 08:59:25;;;;;;;3.33;1.33;;;;;25.10;101712.00;;;;5050540;28;21020;-78
2022/08/01 09:01:54;;;;;;;8.38;1.48;;;;;25.10;101713.00;;;;5050461;28;20210;-78
2022/08/01 09:04:23;;;;;;;6.47;1.20;;;;;25.10;101716.00;;;;5050696;28;20597;-78
2022/08/01 09:06:51;;;;;;;6.97;1.60;;;;;25.20;101718.00;;;;5049815;28;20235;-79
2022/08/01 09:09:18;;;;;;;4.80;1.67;;;;;25.20;101725.00;;;;5051228;28;20196;-78
2022/08/01 09:11:46;;;;;;;5.88;1.88;;;;;25.20;101725.00;;;;5050463;28;20548;-79
2022/08/01 09:14:22;;;;;;;3.67;1.45;;;;;25.30;101718.00;;;;5049993;28;20281;-78
2022/08/01 09:17:02;;;;;;;6.07;1.40;;;;;25.20;101721.00;;;;5049438;28;20991;-78
2022/08/01 09:19:38;;;;;;;3.25;1.10;;;;;25.30;101726.00;;;;5050023;28;20192;-78
2022/08/01 09:22:07;;;;;;;6.95;1.42;;;;;25.40;101730.00;;;;5050143;28;20199;-78
2022/08/01 09:24:35;;;;;;;3.83;1.40;;;;;25.40;101734.00;;;;5041243;28;21118;-78
2022/08/01 09:27:16;;;;;;;2.63;1.30;;;;;25.50;101741.00;;;;5046213;28;20322;-78
2022/08/01 09:29:44;;;;;;;4.75;1.48;;;;;25.50;101734.00;;;;5049676;28;20195;-78
2022/08/01 09:32:13;;;;;;;3.28;1.20;;;;;25.50;101736.00;;;;5048385;28;20769;-78
2022/08/01 09:34:40;;;;;;;3.85;1.60;;;;;25.50;101742.00;;;;5033631;28;20200;-77
2022/08/01 09:37:08;;;;;;;7.85;1.75;;;;;25.60;101737.00;;;;5046432;28;20589;-78
2022/08/01 09:39:37;;;;;;;5.38;1.58;;;;;25.60;101743.00;;;;5041541;28;20207;-77
2022/08/01 09:42:22;;;;;;;5.38;1.48;;;;;25.50;101745.00;;;;5036092;28;20608;-77
2022/08/01 09:44:50;;;;;;;3.30;1.75;;;;;25.70;101745.00;;;;5030328;28;20200;-78
2022/08/01 09:47:20;;;;;;;5.13;1.58;;;;;25.70;101746.00;;;;5047790;28;20204;-77
2022/08/01 09:49:55;;;;;;;4.25;1.40;;;;;25.70;101759.00;;;;5050795;28;20199;-77
2022/08/01 09:52:24;;;;;;;4.68;1.35;;;;;25.80;101753.00;;;;5048812;28;20511;-78
2022/08/01 09:54:55;;;;;;;5.85;1.45;;;;;25.80;101760.00;;;;5049500;28;20203;-77
2022/08/01 09:57:23;;;;;;;1.40;0.90;;;;;25.90;101761.00;;;;5049106;28;20273;-77
2022/08/01 09:59:53;;;;;;;1.48;1.13;;;;;25.90;101753.00;;;;5047818;28;20195;-77
2022/08/01 10:02:33;;;;;;;2.22;1.13;;;;;25.90;101761.00;;;;5047655;28;20200;-78
2022/08/01 10:05:02;;;;;;;3.78;1.27;;;;;26.00;101759.00;;;;5048968;28;20211;-77
2022/08/01 10:07:29;;;;;;;2.65;0.85;;;;;26.10;101760.00;;;;5048442;28;20196;-77
2022/08/01 10:09:56;;;;;;;3.17;1.40;;;;;26.20;101759.00;;;;5049386;28;20199;-77
2022/08/01 10:12:24;;;;;;;2.63;1.05;;;;;26.20;101760.00;;;;5047858;28;20210;-77
2022/08/01 10:14:55;;;;;;;1.00;0.90;;;;;26.30;101769.00;;;;5045378;28;20208;-77
2022/08/01 10:17:26;;;;;;;3.13;1.10;;;;;26.30;101772.00;;;;5047051;28;20231;-77
2022/08/01 10:19:56;;;;;;;5.03;1.58;;;;;26.40;101768.00;;;;5048140;28;20203;-77
2022/08/01 10:22:26;;;;;;;4.40;1.00;;;;;26.50;101770.00;;;;5047821;28;20736;-77
2022/08/01 10:24:58;;;;;;;1.63;1.10;;;;;26.50;101766.00;;;;5048668;28;20587;-77
2022/08/01 10:27:26;;;;;;;2.97;1.20;;;;;26.60;101766.00;;;;5047658;28;20228;-77
2022/08/01 10:30:03;;;;;;;5.47;1.20;;;;;26.60;101767.00;;;;5048470;28;20230;-77
2022/08/01 10:32:31;;;;;;;4.30;1.45;;;;;26.70;101766.00;;;;5039109;28;20207;-77
2022/08/01 10:35:01;;;;;;;3.47;1.13;;;;;26.70;101771.00;;;;5042801;28;20199;-77
2022/08/01 10:37:28;;;;;;;2.38;1.15;;;;;26.80;101763.00;;;;5047763;28;20219;-78
2022/08/01 10:39:55;;;;;;;1.67;1.05;;;;;26.80;101764.00;;;;5048318;28;20207;-78
2022/08/01 10:42:23;;;;;;;3.08;1.00;;;;;26.90;101758.00;;;;5048264;28;20215;-78
2022/08/01 10:44:52;;;;;;;5.57;1.50;;;;;27.00;101759.00;;;;5048401;28;20235;-78
2022/08/01 10:47:23;;;;;;;3.15;1.02;;;;;27.00;101765.00;;;;5047454;28;20200;-78
2022/08/01 10:49:57;;;;;;;2.20;1.10;;;;;27.10;101759.00;;;;5036714;28;20532;-78
2022/08/01 10:52:25;;;;;;;1.45;0.70;;;;;27.20;101758.00;;;;5047876;28;20212;-78
2022/08/01 10:55:03;;;;;;;1.95;0.98;;;;;27.10;101760.00;;;;5047292;28;20196;-78
2022/08/01 10:57:44;;;;;;;4.40;1.20;;;;;27.20;101757.00;;;;5046584;28;21067;-78
2022/08/01 11:00:18;;;;;;;2.03;1.00;;;;;27.30;101763.00;;;;5048058;28;20215;-78
2022/08/01 11:03:00;;;;;;;4.78;0.80;;;;;27.30;101758.00;;;;5048262;28;20268;-78
2022/08/01 11:05:29;;;;;;;3.20;0.70;;;;;27.50;101762.00;;;;5047283;28;20229;-79
2022/08/01 11:08:02;;;;;;;1.48;0.63;;;;;27.50;101758.00;;;;5030890;28;20671;-78
2022/08/01 11:10:35;;;;;;;2.03;0.90;;;;;27.50;101758.00;;;;5047098;28;20192;-78
2022/08/01 11:13:07;;;;;;;2.15;0.80;;;;;27.50;101754.00;;;;5048235;28;20211;-79
2022/08/01 11:15:34;;;;;;;5.65;0.90;;;;;27.50;101764.00;;;;5047155;28;20231;-78
2022/08/01 11:18:26;;;;;;;3.55;1.10;;;;;27.40;101766.00;;;;5047919;28;20231;-79
2022/08/01 11:20:58;;;;;;;5.13;1.02;;;;;27.40;101766.00;;;;5046674;28;20207;-79
2022/08/01 11:23:32;;;;;;;4.05;1.02;;;;;27.40;101768.00;;;;5039349;28;20207;-79
2022/08/01 11:26:15;;;;;;;2.33;0.82;;;;;27.30;101769.00;;;;5036131;28;20269;-79
2022/08/01 11:28:44;;;;;;;3.33;1.10;;;;;27.40;101774.00;;;;5046283;28;20192;-79
2022/08/01 11:31:32;;;;;;;3.58;1.05;;;;;27.30;101769.00;;;;5046444;28;20253;-79
2022/08/01 11:34:00;;;;;;;5.05;2.00;;;;;27.50;101776.00;;;;5047617;28;20203;-79
2022/08/01 11:36:28;;;;;;;7.53;1.20;;;;;27.50;101779.00;;;;5047762;28;20215;-78
2022/08/01 11:39:16;;;;;;;2.72;0.95;;;;;27.30;101783.00;;;;5047444;28;20731;-79
2022/08/01 11:41:45;;;;;;;2.90;0.80;;;;;27.40;101785.00;;;;5042554;28;20539;-78
2022/08/01 11:44:14;;;;;;;3.78;1.42;;;;;27.40;101776.00;;;;5047588;28;20202;-79
2022/08/01 11:47:04;;;;;;;5.45;1.38;;;;;27.40;101785.00;;;;5048007;28;20203;-79
2022/08/01 11:49:47;;;;;;;2.97;1.30;;;;;27.30;101772.00;;;;5046925;28;20210;-78
2022/08/01 11:52:16;;;;;;;2.20;0.90;;;;;27.50;101777.00;;;;5047113;28;20210;-78
2022/08/01 11:54:47;;;;;;;6.68;1.30;;;;;27.50;101784.00;;;;5047656;28;20203;-78
2022/08/01 11:57:18;;;;;;;4.05;1.13;;;;;27.60;101775.00;;;;5040458;28;20232;-78
2022/08/01 11:59:49;;;;;;;3.25;1.38;;;;;27.60;101784.00;;;;5032146;28;20254;-78
2022/08/01 12:02:21;;;;;;;4.43;1.13;;;;;27.60;101783.00;;;;5050426;28;20204;-78
2022/08/01 12:04:50;;;;;;;3.80;0.98;;;;;27.60;101791.00;;;;5051806;28;20286;-79
2022/08/01 12:07:19;;;;;;;4.10;1.02;;;;;27.60;101796.00;;;;5051141;28;20211;-79
2022/08/01 12:09:48;;;;;;;2.25;1.08;;;;;27.60;101785.00;;;;5051949;28;20200;-78
2022/08/01 12:12:19;;;;;;;5.03;1.10;;;;;27.60;101790.00;;;;5051234;28;20200;-78
2022/08/01 12:14:54;;;;;;;2.97;1.13;;;;;27.60;101799.00;;;;5040976;28;20676;-79
2022/08/01 12:17:29;;;;;;;1.88;1.13;;;;;27.60;101796.00;;;;5050155;28;20246;-78
2022/08/01 12:19:56;;;;;;;2.10;1.23;;;;;27.60;101793.00;;;;5051492;28;20206;-78
2022/08/01 12:22:25;;;;;;;1.83;0.90;;;;;27.70;101790.00;;;;5050941;28;20203;-78